sensor_id;sensor_type;location;lat;lon;timestamp;P1;durP1;ratioP1;P2;durP2;ratioP2
70814;SDS011;58428;49.478;10.986;2024-02-23T00:00:17;0.40;;;0.40;;
70814;SDS011;58428;49.478;10.986;2024-02-23T00:02:43;0.30;;;0.30;;
70814;SDS011;58428;49.478;10.986;2024-02-23T00:05:09;1.17;;;0.70;;
70814;SDS011;58428;49.478;10.986;2024-02-23T00:10:27;1.92;;;0.50;;
70814;SDS011;58428;49.478;10.986;2024-02-23T00:12:52;0.95;;;0.38;;
70814;SDS011;58428;49.478;10.986;2024-02-23T00:15:18;1.08;;;0.40;;
70814;SDS011;58428;49.478;10.986;2024-02-23T00:17:44;0.88;;;0.45;;
70814;SDS011;58428;49.478;10.986;2024-02-23T00:20:10;1.67;;;0.50;;
70814;SDS011;58428;49.478;10.986;2024-02-23T00:22:42;1.38;;;0.70;;
70814;SDS011;58428;49.478;10.986;2024-02-23T00:25:07;0.40;;;0.40;;
70814;SDS011;58428;49.478;10.986;2024-02-23T00:27:42;1.02;;;0.47;;
70814;SDS011;58428;49.478;10.986;2024-02-23T00:30:14;0.30;;;0.30;;
70814;SDS011;58428;49.478;10.986;2024-02-23T00:32:40;0.47;;;0.40;;
70814;SDS011;58428;49.478;10.986;2024-02-23T00:35:06;0.20;;;0.20;;
70814;SDS011;58428;49.478;10.986;2024-02-23T00:37:31;0.45;;;0.35;;
70814;SDS011;58428;49.478;10.986;2024-02-23T00:40:07;0.52;;;0.20;;
70814;SDS011;58428;49.478;10.986;2024-02-23T00:42:34;0.70;;;0.30;;
70814;SDS011;58428;49.478;10.986;2024-02-23T00:45:00;0.73;;;0.35;;
70814;SDS011;58428;49.478;10.986;2024-02-23T00:47:28;0.32;;;0.20;;
70814;SDS011;58428;49.478;10.986;2024-02-23T00:49:54;0.15;;;0.15;;
70814;SDS011;58428;49.478;10.986;2024-02-23T00:52:25;1.17;;;0.32;;
70814;SDS011;58428;49.478;10.986;2024-02-23T00:54:57;0.40;;;0.35;;
70814;SDS011;58428;49.478;10.986;2024-02-23T00:57:23;0.85;;;0.45;;
70814;SDS011;58428;49.478;10.986;2024-02-23T00:59:54;0.52;;;0.30;;
70814;SDS011;58428;49.478;10.986;2024-02-23T01:02:24;0.25;;;0.20;;
70814;SDS011;58428;49.478;10.986;2024-02-23T01:04:49;0.98;;;0.43;;
70814;SDS011;58428;49.478;10.986;2024-02-23T01:07:16;1.10;;;0.20;;
70814;SDS011;58428;49.478;10.986;2024-02-23T01:09:45;1.38;;;0.30;;
70814;SDS011;58428;49.478;10.986;2024-02-23T01:12:22;0.30;;;0.30;;
70814;SDS011;58428;49.478;10.986;2024-02-23T01:14:47;0.22;;;0.20;;
70814;SDS011;58428;49.478;10.986;2024-02-23T01:17:15;0.28;;;0.22;;
70814;SDS011;58428;49.478;10.986;2024-02-23T01:19:41;1.88;;;0.43;;
70814;SDS011;58428;49.478;10.986;2024-02-23T01:22:11;0.85;;;0.30;;
70814;SDS011;58428;49.478;10.986;2024-02-23T01:24:36;1.58;;;0.60;;
70814;SDS011;58428;49.478;10.986;2024-02-23T01:27:02;1.08;;;0.70;;
70814;SDS011;58428;49.478;10.986;2024-02-23T01:29:28;0.65;;;0.35;;
70814;SDS011;58428;49.478;10.986;2024-02-23T01:31:57;0.95;;;0.40;;
70814;SDS011;58428;49.478;10.986;2024-02-23T01:34:23;0.82;;;0.40;;
70814;SDS011;58428;49.478;10.986;2024-02-23T01:36:49;0.98;;;0.57;;
70814;SDS011;58428;49.478;10.986;2024-02-23T01:39:16;1.38;;;0.40;;
70814;SDS011;58428;49.478;10.986;2024-02-23T01:41:41;0.30;;;0.30;;
70814;SDS011;58428;49.478;10.986;2024-02-23T01:44:09;1.23;;;0.40;;
70814;SDS011;58428;49.478;10.986;2024-02-23T01:46:36;0.38;;;0.38;;
70814;SDS011;58428;49.478;10.986;2024-02-23T01:49:02;0.45;;;0.45;;
70814;SDS011;58428;49.478;10.986;2024-02-23T01:51:32;2.58;;;0.60;;
70814;SDS011;58428;49.478;10.986;2024-02-23T01:53:59;0.88;;;0.43;;
70814;SDS011;58428;49.478;10.986;2024-02-23T01:56:25;1.00;;;0.57;;
70814;SDS011;58428;49.478;10.986;2024-02-23T02:01:17;0.80;;;0.50;;
70814;SDS011;58428;49.478;10.986;2024-02-23T02:03:42;0.57;;;0.43;;
70814;SDS011;58428;49.478;10.986;2024-02-23T02:06:09;2.50;;;0.70;;
70814;SDS011;58428;49.478;10.986;2024-02-23T02:08:35;0.43;;;0.43;;
70814;SDS011;58428;49.478;10.986;2024-02-23T02:11:01;1.75;;;0.32;;
70814;SDS011;58428;49.478;10.986;2024-02-23T02:13:30;0.75;;;0.35;;
70814;SDS011;58428;49.478;10.986;2024-02-23T02:15:56;0.85;;;0.40;;
70814;SDS011;58428;49.478;10.986;2024-02-23T02:18:27;0.75;;;0.52;;
70814;SDS011;58428;49.478;10.986;2024-02-23T02:20:56;2.08;;;0.47;;
70814;SDS011;58428;49.478;10.986;2024-02-23T02:23:22;0.82;;;0.43;;
70814;SDS011;58428;49.478;10.986;2024-02-23T02:25:54;1.23;;;0.55;;
70814;SDS011;58428;49.478;10.986;2024-02-23T02:28:22;1.55;;;0.60;;
70814;SDS011;58428;49.478;10.986;2024-02-23T02:30:49;0.75;;;0.50;;
70814;SDS011;58428;49.478;10.986;2024-02-23T02:33:16;2.15;;;0.32;;
70814;SDS011;58428;49.478;10.986;2024-02-23T02:35:45;2.63;;;0.55;;
70814;SDS011;58428;49.478;10.986;2024-02-23T02:38:17;2.50;;;0.60;;
70814;SDS011;58428;49.478;10.986;2024-02-23T02:40:46;1.45;;;0.50;;
70814;SDS011;58428;49.478;10.986;2024-02-23T02:43:12;1.13;;;0.47;;
70814;SDS011;58428;49.478;10.986;2024-02-23T02:45:38;3.75;;;0.63;;
70814;SDS011;58428;49.478;10.986;2024-02-23T02:48:03;0.75;;;0.70;;
70814;SDS011;58428;49.478;10.986;2024-02-23T02:50:29;0.68;;;0.32;;
70814;SDS011;58428;49.478;10.986;2024-02-23T02:53:03;1.23;;;0.50;;
70814;SDS011;58428;49.478;10.986;2024-02-23T02:55:29;0.52;;;0.47;;
70814;SDS011;58428;49.478;10.986;2024-02-23T02:57:54;0.90;;;0.50;;
70814;SDS011;58428;49.478;10.986;2024-02-23T03:00:19;0.43;;;0.40;;
70814;SDS011;58428;49.478;10.986;2024-02-23T03:02:45;1.58;;;0.70;;
70814;SDS011;58428;49.478;10.986;2024-02-23T03:05:12;1.67;;;0.55;;
70814;SDS011;58428;49.478;10.986;2024-02-23T03:07:37;0.77;;;0.70;;
70814;SDS011;58428;49.478;10.986;2024-02-23T03:10:03;1.35;;;0.50;;
70814;SDS011;58428;49.478;10.986;2024-02-23T03:12:38;1.70;;;0.45;;
70814;SDS011;58428;49.478;10.986;2024-02-23T03:15:03;2.03;;;0.52;;
70814;SDS011;58428;49.478;10.986;2024-02-23T03:17:31;3.35;;;0.60;;
70814;SDS011;58428;49.478;10.986;2024-02-23T03:19:58;2.75;;;0.57;;
70814;SDS011;58428;49.478;10.986;2024-02-23T03:22:30;4.85;;;0.93;;
70814;SDS011;58428;49.478;10.986;2024-02-23T03:24:56;2.78;;;0.60;;
70814;SDS011;58428;49.478;10.986;2024-02-23T03:27:27;1.77;;;0.60;;
70814;SDS011;58428;49.478;10.986;2024-02-23T03:29:54;1.45;;;0.50;;
70814;SDS011;58428;49.478;10.986;2024-02-23T03:32:19;4.18;;;0.88;;
70814;SDS011;58428;49.478;10.986;2024-02-23T03:34:45;2.65;;;0.70;;
70814;SDS011;58428;49.478;10.986;2024-02-23T03:37:10;2.60;;;0.70;;
70814;SDS011;58428;49.478;10.986;2024-02-23T03:39:36;2.58;;;0.57;;
70814;SDS011;58428;49.478;10.986;2024-02-23T03:42:02;3.70;;;0.70;;
70814;SDS011;58428;49.478;10.986;2024-02-23T03:44:28;3.10;;;0.60;;
70814;SDS011;58428;49.478;10.986;2024-02-23T03:46:55;0.88;;;0.40;;
70814;SDS011;58428;49.478;10.986;2024-02-23T03:49:21;5.38;;;0.80;;
70814;SDS011;58428;49.478;10.986;2024-02-23T03:51:48;6.45;;;0.80;;
70814;SDS011;58428;49.478;10.986;2024-02-23T03:54:17;2.38;;;0.80;;
70814;SDS011;58428;49.478;10.986;2024-02-23T03:56:43;4.72;;;1.17;;
70814;SDS011;58428;49.478;10.986;2024-02-23T03:59:10;3.03;;;0.75;;
70814;SDS011;58428;49.478;10.986;2024-02-23T04:01:48;5.97;;;1.05;;
70814;SDS011;58428;49.478;10.986;2024-02-23T04:04:14;1.65;;;0.68;;
70814;SDS011;58428;49.478;10.986;2024-02-23T04:06:39;2.30;;;0.63;;
70814;SDS011;58428;49.478;10.986;2024-02-23T04:09:08;2.22;;;0.50;;
70814;SDS011;58428;49.478;10.986;2024-02-23T04:11:34;4.28;;;0.90;;
70814;SDS011;58428;49.478;10.986;2024-02-23T04:13:59;2.58;;;0.70;;
70814;SDS011;58428;49.478;10.986;2024-02-23T04:16:25;1.92;;;0.70;;
70814;SDS011;58428;49.478;10.986;2024-02-23T04:18:53;3.00;;;0.80;;
70814;SDS011;58428;49.478;10.986;2024-02-23T04:21:19;2.08;;;1.00;;
70814;SDS011;58428;49.478;10.986;2024-02-23T04:23:49;2.03;;;0.70;;
70814;SDS011;58428;49.478;10.986;2024-02-23T04:28:40;4.43;;;0.93;;
70814;SDS011;58428;49.478;10.986;2024-02-23T04:31:07;2.25;;;0.60;;
70814;SDS011;58428;49.478;10.986;2024-02-23T04:33:34;0.73;;;0.68;;
70814;SDS011;58428;49.478;10.986;2024-02-23T04:36:00;4.60;;;0.70;;
70814;SDS011;58428;49.478;10.986;2024-02-23T04:38:27;3.30;;;0.68;;
70814;SDS011;58428;49.478;10.986;2024-02-23T04:40:52;2.85;;;0.70;;
70814;SDS011;58428;49.478;10.986;2024-02-23T04:43:18;3.72;;;0.70;;
70814;SDS011;58428;49.478;10.986;2024-02-23T04:45:46;1.00;;;0.60;;
70814;SDS011;58428;49.478;10.986;2024-02-23T04:48:11;2.30;;;0.70;;
70814;SDS011;58428;49.478;10.986;2024-02-23T04:50:37;2.72;;;1.00;;
70814;SDS011;58428;49.478;10.986;2024-02-23T04:53:02;5.32;;;1.13;;
70814;SDS011;58428;49.478;10.986;2024-02-23T04:55:29;4.18;;;1.08;;
70814;SDS011;58428;49.478;10.986;2024-02-23T04:57:56;2.25;;;0.63;;
70814;SDS011;58428;49.478;10.986;2024-02-23T05:00:21;3.28;;;0.80;;
70814;SDS011;58428;49.478;10.986;2024-02-23T05:02:58;1.88;;;0.80;;
70814;SDS011;58428;49.478;10.986;2024-02-23T05:05:25;3.35;;;0.70;;
70814;SDS011;58428;49.478;10.986;2024-02-23T05:07:51;2.13;;;0.73;;
70814;SDS011;58428;49.478;10.986;2024-02-23T05:10:16;3.08;;;0.90;;
70814;SDS011;58428;49.478;10.986;2024-02-23T05:12:42;1.40;;;0.60;;
70814;SDS011;58428;49.478;10.986;2024-02-23T05:15:07;3.60;;;0.73;;
70814;SDS011;58428;49.478;10.986;2024-02-23T05:17:34;3.13;;;0.80;;
70814;SDS011;58428;49.478;10.986;2024-02-23T05:19:59;3.10;;;0.68;;
70814;SDS011;58428;49.478;10.986;2024-02-23T05:22:32;3.08;;;0.88;;
70814;SDS011;58428;49.478;10.986;2024-02-23T05:24:58;6.50;;;0.90;;
70814;SDS011;58428;49.478;10.986;2024-02-23T05:27:23;4.32;;;0.98;;
70814;SDS011;58428;49.478;10.986;2024-02-23T05:29:52;2.28;;;0.85;;
70814;SDS011;58428;49.478;10.986;2024-02-23T05:32:17;3.03;;;0.70;;
70814;SDS011;58428;49.478;10.986;2024-02-23T05:34:44;3.40;;;0.80;;
70814;SDS011;58428;49.478;10.986;2024-02-23T05:37:09;2.50;;;0.90;;
70814;SDS011;58428;49.478;10.986;2024-02-23T05:39:35;3.25;;;0.77;;
70814;SDS011;58428;49.478;10.986;2024-02-23T05:42:03;3.47;;;0.70;;
70814;SDS011;58428;49.478;10.986;2024-02-23T05:46:54;3.67;;;0.90;;
70814;SDS011;58428;49.478;10.986;2024-02-23T05:49:20;2.70;;;0.80;;
70814;SDS011;58428;49.478;10.986;2024-02-23T05:51:45;3.92;;;0.80;;
70814;SDS011;58428;49.478;10.986;2024-02-23T05:54:14;2.53;;;0.75;;
70814;SDS011;58428;49.478;10.986;2024-02-23T05:56:41;2.75;;;0.85;;
70814;SDS011;58428;49.478;10.986;2024-02-23T05:59:11;2.90;;;0.90;;
70814;SDS011;58428;49.478;10.986;2024-02-23T06:01:36;3.75;;;0.90;;
70814;SDS011;58428;49.478;10.986;2024-02-23T06:04:03;5.00;;;1.00;;
70814;SDS011;58428;49.478;10.986;2024-02-23T06:06:28;2.80;;;0.90;;
70814;SDS011;58428;49.478;10.986;2024-02-23T06:08:54;2.92;;;0.70;;
70814;SDS011;58428;49.478;10.986;2024-02-23T06:11:19;0.65;;;0.50;;
70814;SDS011;58428;49.478;10.986;2024-02-23T06:13:45;1.63;;;0.70;;
70814;SDS011;58428;49.478;10.986;2024-02-23T06:16:10;4.30;;;0.90;;
70814;SDS011;58428;49.478;10.986;2024-02-23T06:18:37;2.28;;;0.70;;
70814;SDS011;58428;49.478;10.986;2024-02-23T06:21:15;3.53;;;0.80;;
70814;SDS011;58428;49.478;10.986;2024-02-23T06:23:43;3.15;;;0.80;;
70814;SDS011;58428;49.478;10.986;2024-02-23T06:26:14;4.55;;;1.20;;
70814;SDS011;58428;49.478;10.986;2024-02-23T06:28:39;2.92;;;0.70;;
70814;SDS011;58428;49.478;10.986;2024-02-23T06:31:08;4.72;;;0.85;;
70814;SDS011;58428;49.478;10.986;2024-02-23T06:33:35;4.22;;;1.00;;
70814;SDS011;58428;49.478;10.986;2024-02-23T06:36:02;3.47;;;0.88;;
70814;SDS011;58428;49.478;10.986;2024-02-23T06:38:38;2.58;;;1.00;;
70814;SDS011;58428;49.478;10.986;2024-02-23T06:41:11;2.72;;;1.00;;
70814;SDS011;58428;49.478;10.986;2024-02-23T06:43:37;4.70;;;1.13;;
70814;SDS011;58428;49.478;10.986;2024-02-23T06:46:07;3.58;;;0.75;;
70814;SDS011;58428;49.478;10.986;2024-02-23T06:48:37;5.40;;;1.10;;
70814;SDS011;58428;49.478;10.986;2024-02-23T06:56:19;4.25;;;2.05;;
70814;SDS011;58428;49.478;10.986;2024-02-23T06:58:47;1.95;;;1.10;;
70814;SDS011;58428;49.478;10.986;2024-02-23T07:04:44;2.97;;;1.00;;
70814;SDS011;58428;49.478;10.986;2024-02-23T07:07:14;4.32;;;0.80;;
70814;SDS011;58428;49.478;10.986;2024-02-23T07:09:41;2.63;;;0.90;;
70814;SDS011;58428;49.478;10.986;2024-02-23T07:12:17;3.22;;;0.98;;
70814;SDS011;58428;49.478;10.986;2024-02-23T07:15:14;3.40;;;1.38;;
70814;SDS011;58428;49.478;10.986;2024-02-23T07:17:41;4.20;;;1.00;;
70814;SDS011;58428;49.478;10.986;2024-02-23T07:20:06;3.38;;;1.00;;
70814;SDS011;58428;49.478;10.986;2024-02-23T07:22:50;2.42;;;0.70;;
70814;SDS011;58428;49.478;10.986;2024-02-23T07:25:47;1.73;;;0.88;;
70814;SDS011;58428;49.478;10.986;2024-02-23T07:28:15;1.92;;;0.88;;
70814;SDS011;58428;49.478;10.986;2024-02-23T07:30:45;3.53;;;1.00;;
70814;SDS011;58428;49.478;10.986;2024-02-23T07:33:20;2.83;;;0.95;;
70814;SDS011;58428;49.478;10.986;2024-02-23T07:38:52;3.83;;;0.90;;
70814;SDS011;58428;49.478;10.986;2024-02-23T07:41:31;2.90;;;0.93;;
70814;SDS011;58428;49.478;10.986;2024-02-23T07:44:15;4.20;;;1.10;;
70814;SDS011;58428;49.478;10.986;2024-02-23T07:46:40;1.63;;;1.00;;
70814;SDS011;58428;49.478;10.986;2024-02-23T07:51:44;3.10;;;1.00;;
70814;SDS011;58428;49.478;10.986;2024-02-23T07:54:29;2.53;;;0.98;;
70814;SDS011;58428;49.478;10.986;2024-02-23T07:56:56;2.13;;;0.98;;
70814;SDS011;58428;49.478;10.986;2024-02-23T07:59:24;2.20;;;0.95;;
70814;SDS011;58428;49.478;10.986;2024-02-23T08:01:49;3.70;;;0.90;;
70814;SDS011;58428;49.478;10.986;2024-02-23T08:04:36;2.13;;;0.90;;
70814;SDS011;58428;49.478;10.986;2024-02-23T08:07:02;2.13;;;0.90;;
70814;SDS011;58428;49.478;10.986;2024-02-23T08:09:51;3.05;;;1.10;;
70814;SDS011;58428;49.478;10.986;2024-02-23T08:12:21;2.30;;;0.80;;
70814;SDS011;58428;49.478;10.986;2024-02-23T08:14:48;2.80;;;0.70;;
70814;SDS011;58428;49.478;10.986;2024-02-23T08:17:24;2.00;;;0.90;;
70814;SDS011;58428;49.478;10.986;2024-02-23T08:19:50;2.70;;;0.93;;
70814;SDS011;58428;49.478;10.986;2024-02-23T08:28:28;2.42;;;0.93;;
70814;SDS011;58428;49.478;10.986;2024-02-23T08:31:07;1.55;;;0.70;;
70814;SDS011;58428;49.478;10.986;2024-02-23T08:33:32;2.63;;;0.95;;
70814;SDS011;58428;49.478;10.986;2024-02-23T08:36:04;4.43;;;0.93;;
70814;SDS011;58428;49.478;10.986;2024-02-23T08:38:38;5.50;;;1.10;;
70814;SDS011;58428;49.478;10.986;2024-02-23T08:41:04;4.07;;;1.02;;
70814;SDS011;58428;49.478;10.986;2024-02-23T08:43:33;3.45;;;0.98;;
70814;SDS011;58428;49.478;10.986;2024-02-23T08:53:36;3.78;;;1.20;;
70814;SDS011;58428;49.478;10.986;2024-02-23T08:59:46;2.55;;;0.90;;
70814;SDS011;58428;49.478;10.986;2024-02-23T09:02:12;2.75;;;0.90;;
70814;SDS011;58428;49.478;10.986;2024-02-23T09:07:23;1.83;;;1.00;;
70814;SDS011;58428;49.478;10.986;2024-02-23T09:10:18;9.27;;;0.98;;
70814;SDS011;58428;49.478;10.986;2024-02-23T09:17:16;3.33;;;0.90;;
70814;SDS011;58428;49.478;10.986;2024-02-23T09:20:08;1.38;;;0.60;;
70814;SDS011;58428;49.478;10.986;2024-02-23T09:26:33;1.77;;;0.80;;
70814;SDS011;58428;49.478;10.986;2024-02-23T09:28:58;1.95;;;0.73;;
70814;SDS011;58428;49.478;10.986;2024-02-23T09:34:34;2.47;;;1.05;;
70814;SDS011;58428;49.478;10.986;2024-02-23T09:37:00;3.72;;;1.13;;
70814;SDS011;58428;49.478;10.986;2024-02-23T09:39:41;3.03;;;1.00;;
70814;SDS011;58428;49.478;10.986;2024-02-23T09:42:09;2.67;;;0.90;;
70814;SDS011;58428;49.478;10.986;2024-02-23T09:44:44;3.38;;;0.90;;
70814;SDS011;58428;49.478;10.986;2024-02-23T09:47:45;3.08;;;0.90;;
70814;SDS011;58428;49.478;10.986;2024-02-23T09:53:36;3.60;;;1.08;;
70814;SDS011;58428;49.478;10.986;2024-02-23T09:56:25;5.28;;;1.15;;
70814;SDS011;58428;49.478;10.986;2024-02-23T10:21:24;2.20;;;0.70;;
70814;SDS011;58428;49.478;10.986;2024-02-23T10:25:01;2.15;;;0.85;;
70814;SDS011;58428;49.478;10.986;2024-02-23T10:37:27;3.72;;;1.00;;
70814;SDS011;58428;49.478;10.986;2024-02-23T10:43:33;3.42;;;1.00;;
70814;SDS011;58428;49.478;10.986;2024-02-23T10:47:29;2.25;;;0.80;;
70814;SDS011;58428;49.478;10.986;2024-02-23T10:49:54;1.02;;;0.50;;
70814;SDS011;58428;49.478;10.986;2024-02-23T10:53:00;2.08;;;0.60;;
70814;SDS011;58428;49.478;10.986;2024-02-23T11:02:15;2.72;;;0.90;;
70814;SDS011;58428;49.478;10.986;2024-02-23T11:05:41;2.40;;;1.45;;
70814;SDS011;58428;49.478;10.986;2024-02-23T11:08:13;3.00;;;0.77;;
70814;SDS011;58428;49.478;10.986;2024-02-23T11:20:58;2.55;;;1.00;;
70814;SDS011;58428;49.478;10.986;2024-02-23T11:49:53;4.78;;;2.08;;
70814;SDS011;58428;49.478;10.986;2024-02-23T11:52:40;2.70;;;1.27;;
70814;SDS011;58428;49.478;10.986;2024-02-23T11:55:26;2.47;;;1.00;;
70814;SDS011;58428;49.478;10.986;2024-02-23T12:01:45;3.58;;;1.00;;
70814;SDS011;58428;49.478;10.986;2024-02-23T12:04:44;1.25;;;0.70;;
70814;SDS011;58428;49.478;10.986;2024-02-23T12:07:15;1.58;;;0.70;;
70814;SDS011;58428;49.478;10.986;2024-02-23T12:09:47;1.98;;;0.90;;
70814;SDS011;58428;49.478;10.986;2024-02-23T12:15:03;2.83;;;0.95;;
70814;SDS011;58428;49.478;10.986;2024-02-23T12:21:08;2.25;;;1.00;;
70814;SDS011;58428;49.478;10.986;2024-02-23T12:27:34;1.58;;;0.98;;
70814;SDS011;58428;49.478;10.986;2024-02-23T12:30:19;2.85;;;0.95;;
70814;SDS011;58428;49.478;10.986;2024-02-23T12:33:17;3.38;;;1.13;;
70814;SDS011;58428;49.478;10.986;2024-02-23T12:35:54;2.88;;;0.90;;
70814;SDS011;58428;49.478;10.986;2024-02-23T12:38:27;1.70;;;0.90;;
70814;SDS011;58428;49.478;10.986;2024-02-23T12:42:02;2.65;;;1.08;;
70814;SDS011;58428;49.478;10.986;2024-02-23T12:48:04;3.58;;;0.90;;
70814;SDS011;58428;49.478;10.986;2024-02-23T12:51:04;3.28;;;1.30;;
70814;SDS011;58428;49.478;10.986;2024-02-23T12:56:32;2.28;;;1.13;;
70814;SDS011;58428;49.478;10.986;2024-02-23T13:06:09;2.95;;;1.00;;
70814;SDS011;58428;49.478;10.986;2024-02-23T13:08:34;2.90;;;1.25;;
70814;SDS011;58428;49.478;10.986;2024-02-23T13:18:05;3.47;;;1.13;;
70814;SDS011;58428;49.478;10.986;2024-02-23T13:20:38;3.80;;;1.15;;
70814;SDS011;58428;49.478;10.986;2024-02-23T13:23:15;2.28;;;0.73;;
70814;SDS011;58428;49.478;10.986;2024-02-23T13:25:47;3.72;;;1.20;;
70814;SDS011;58428;49.478;10.986;2024-02-23T13:28:32;3.72;;;1.35;;
70814;SDS011;58428;49.478;10.986;2024-02-23T13:31:04;2.78;;;1.30;;
70814;SDS011;58428;49.478;10.986;2024-02-23T13:33:40;3.78;;;1.60;;
70814;SDS011;58428;49.478;10.986;2024-02-23T13:36:07;2.35;;;1.30;;
70814;SDS011;58428;49.478;10.986;2024-02-23T13:41:05;4.18;;;1.38;;
70814;SDS011;58428;49.478;10.986;2024-02-23T13:46:21;1.70;;;1.00;;
70814;SDS011;58428;49.478;10.986;2024-02-23T13:51:48;3.78;;;1.00;;
70814;SDS011;58428;49.478;10.986;2024-02-23T13:54:14;2.78;;;0.90;;
70814;SDS011;58428;49.478;10.986;2024-02-23T13:56:40;5.10;;;1.05;;
70814;SDS011;58428;49.478;10.986;2024-02-23T13:59:14;2.72;;;1.10;;
70814;SDS011;58428;49.478;10.986;2024-02-23T14:01:49;2.10;;;0.93;;
70814;SDS011;58428;49.478;10.986;2024-02-23T14:04:15;1.77;;;0.82;;
70814;SDS011;58428;49.478;10.986;2024-02-23T14:06:42;2.70;;;1.00;;
70814;SDS011;58428;49.478;10.986;2024-02-23T14:09:08;6.30;;;1.60;;
70814;SDS011;58428;49.478;10.986;2024-02-23T14:11:34;3.22;;;0.90;;
70814;SDS011;58428;49.478;10.986;2024-02-23T14:14:02;3.92;;;0.80;;
70814;SDS011;58428;49.478;10.986;2024-02-23T14:16:35;1.42;;;0.90;;
70814;SDS011;58428;49.478;10.986;2024-02-23T14:19:30;5.70;;;1.92;;
70814;SDS011;58428;49.478;10.986;2024-02-23T14:22:07;3.97;;;1.60;;
70814;SDS011;58428;49.478;10.986;2024-02-23T14:25:01;6.15;;;1.65;;
70814;SDS011;58428;49.478;10.986;2024-02-23T14:27:33;3.40;;;1.50;;
70814;SDS011;58428;49.478;10.986;2024-02-23T14:29:59;3.60;;;1.10;;
70814;SDS011;58428;49.478;10.986;2024-02-23T14:32:27;8.18;;;1.83;;
70814;SDS011;58428;49.478;10.986;2024-02-23T14:35:02;3.28;;;1.00;;
70814;SDS011;58428;49.478;10.986;2024-02-23T14:37:51;3.50;;;1.27;;
70814;SDS011;58428;49.478;10.986;2024-02-23T14:40:17;1.20;;;0.90;;
70814;SDS011;58428;49.478;10.986;2024-02-23T14:42:42;5.63;;;1.70;;
70814;SDS011;58428;49.478;10.986;2024-02-23T14:45:08;3.05;;;1.40;;
70814;SDS011;58428;49.478;10.986;2024-02-23T14:49:59;4.75;;;1.60;;
70814;SDS011;58428;49.478;10.986;2024-02-23T14:52:25;5.95;;;1.50;;
70814;SDS011;58428;49.478;10.986;2024-02-23T14:54:51;3.80;;;1.77;;
70814;SDS011;58428;49.478;10.986;2024-02-23T14:57:19;3.28;;;1.38;;
70814;SDS011;58428;49.478;10.986;2024-02-23T14:59:44;2.53;;;1.20;;
70814;SDS011;58428;49.478;10.986;2024-02-23T15:02:19;5.20;;;1.52;;
70814;SDS011;58428;49.478;10.986;2024-02-23T15:04:47;4.72;;;1.50;;
70814;SDS011;58428;49.478;10.986;2024-02-23T15:07:18;3.75;;;1.40;;
70814;SDS011;58428;49.478;10.986;2024-02-23T15:09:46;5.13;;;1.70;;
70814;SDS011;58428;49.478;10.986;2024-02-23T15:12:14;5.55;;;1.55;;
70814;SDS011;58428;49.478;10.986;2024-02-23T15:14:40;5.07;;;1.52;;
70814;SDS011;58428;49.478;10.986;2024-02-23T15:17:23;3.30;;;1.65;;
70814;SDS011;58428;49.478;10.986;2024-02-23T15:19:52;2.55;;;1.20;;
70814;SDS011;58428;49.478;10.986;2024-02-23T15:22:17;4.53;;;1.40;;
70814;SDS011;58428;49.478;10.986;2024-02-23T15:24:46;3.22;;;1.42;;
70814;SDS011;58428;49.478;10.986;2024-02-23T15:27:18;2.20;;;1.30;;
70814;SDS011;58428;49.478;10.986;2024-02-23T15:32:51;5.38;;;1.40;;
70814;SDS011;58428;49.478;10.986;2024-02-23T15:35:18;10.07;;;5.10;;
70814;SDS011;58428;49.478;10.986;2024-02-23T15:38:13;5.20;;;2.00;;
70814;SDS011;58428;49.478;10.986;2024-02-23T15:40:39;7.13;;;3.08;;
70814;SDS011;58428;49.478;10.986;2024-02-23T15:45:54;7.43;;;2.45;;
70814;SDS011;58428;49.478;10.986;2024-02-23T15:48:23;6.53;;;2.00;;
70814;SDS011;58428;49.478;10.986;2024-02-23T15:51:16;2.40;;;1.20;;
70814;SDS011;58428;49.478;10.986;2024-02-23T15:54:11;5.05;;;2.00;;
70814;SDS011;58428;49.478;10.986;2024-02-23T15:57:16;5.10;;;2.13;;
70814;SDS011;58428;49.478;10.986;2024-02-23T15:59:56;4.78;;;1.98;;
70814;SDS011;58428;49.478;10.986;2024-02-23T16:02:32;6.43;;;2.55;;
70814;SDS011;58428;49.478;10.986;2024-02-23T16:05:00;6.07;;;1.80;;
70814;SDS011;58428;49.478;10.986;2024-02-23T16:07:25;3.15;;;1.50;;
70814;SDS011;58428;49.478;10.986;2024-02-23T16:10:15;10.68;;;4.38;;
70814;SDS011;58428;49.478;10.986;2024-02-23T16:12:57;12.30;;;5.75;;
70814;SDS011;58428;49.478;10.986;2024-02-23T16:18:13;8.88;;;4.30;;
70814;SDS011;58428;49.478;10.986;2024-02-23T16:20:40;6.63;;;2.40;;
70814;SDS011;58428;49.478;10.986;2024-02-23T16:26:43;7.95;;;3.65;;
70814;SDS011;58428;49.478;10.986;2024-02-23T16:29:14;9.38;;;4.82;;
70814;SDS011;58428;49.478;10.986;2024-02-23T16:31:59;10.70;;;4.05;;
70814;SDS011;58428;49.478;10.986;2024-02-23T16:35:01;6.78;;;3.20;;
70814;SDS011;58428;49.478;10.986;2024-02-23T16:37:38;7.10;;;3.50;;
70814;SDS011;58428;49.478;10.986;2024-02-23T16:43:09;8.00;;;3.63;;
70814;SDS011;58428;49.478;10.986;2024-02-23T16:45:35;8.77;;;3.22;;
70814;SDS011;58428;49.478;10.986;2024-02-23T16:48:01;7.28;;;3.38;;
70814;SDS011;58428;49.478;10.986;2024-02-23T16:50:32;6.05;;;2.60;;
70814;SDS011;58428;49.478;10.986;2024-02-23T16:53:03;6.43;;;2.42;;
70814;SDS011;58428;49.478;10.986;2024-02-23T16:55:37;5.15;;;2.33;;
70814;SDS011;58428;49.478;10.986;2024-02-23T16:58:43;6.75;;;2.00;;
70814;SDS011;58428;49.478;10.986;2024-02-23T17:01:18;8.38;;;2.17;;
70814;SDS011;58428;49.478;10.986;2024-02-23T17:03:45;5.25;;;2.00;;
70814;SDS011;58428;49.478;10.986;2024-02-23T17:06:10;6.40;;;1.85;;
70814;SDS011;58428;49.478;10.986;2024-02-23T17:08:36;5.70;;;1.60;;
70814;SDS011;58428;49.478;10.986;2024-02-23T17:11:05;5.70;;;2.00;;
70814;SDS011;58428;49.478;10.986;2024-02-23T17:13:32;11.18;;;4.35;;
70814;SDS011;58428;49.478;10.986;2024-02-23T17:25:24;9.10;;;4.18;;
70814;SDS011;58428;49.478;10.986;2024-02-23T17:27:50;10.00;;;3.90;;
70814;SDS011;58428;49.478;10.986;2024-02-23T17:30:17;7.45;;;3.33;;
70814;SDS011;58428;49.478;10.986;2024-02-23T17:35:09;8.60;;;4.32;;
70814;SDS011;58428;49.478;10.986;2024-02-23T17:37:35;9.15;;;3.60;;
70814;SDS011;58428;49.478;10.986;2024-02-23T17:40:01;8.15;;;4.35;;
70814;SDS011;58428;49.478;10.986;2024-02-23T17:42:27;7.00;;;2.90;;
70814;SDS011;58428;49.478;10.986;2024-02-23T17:44:52;9.50;;;3.83;;
70814;SDS011;58428;49.478;10.986;2024-02-23T17:47:19;8.85;;;3.22;;
70814;SDS011;58428;49.478;10.986;2024-02-23T17:49:49;9.13;;;3.08;;
70814;SDS011;58428;49.478;10.986;2024-02-23T17:52:14;8.38;;;2.80;;
70814;SDS011;58428;49.478;10.986;2024-02-23T17:54:41;8.85;;;3.50;;
70814;SDS011;58428;49.478;10.986;2024-02-23T17:57:07;10.80;;;4.72;;
70814;SDS011;58428;49.478;10.986;2024-02-23T18:02:14;11.30;;;5.80;;
70814;SDS011;58428;49.478;10.986;2024-02-23T18:04:40;6.95;;;3.58;;
70814;SDS011;58428;49.478;10.986;2024-02-23T18:07:06;7.93;;;3.15;;
70814;SDS011;58428;49.478;10.986;2024-02-23T18:09:31;8.38;;;2.78;;
70814;SDS011;58428;49.478;10.986;2024-02-23T18:12:00;7.63;;;2.97;;
70814;SDS011;58428;49.478;10.986;2024-02-23T18:14:25;8.27;;;2.70;;
70814;SDS011;58428;49.478;10.986;2024-02-23T18:16:52;8.65;;;3.72;;
70814;SDS011;58428;49.478;10.986;2024-02-23T18:19:18;16.58;;;8.40;;
70814;SDS011;58428;49.478;10.986;2024-02-23T18:21:45;20.70;;;12.27;;
70814;SDS011;58428;49.478;10.986;2024-02-23T18:24:14;12.95;;;7.50;;
70814;SDS011;58428;49.478;10.986;2024-02-23T18:26:44;10.05;;;4.25;;
70814;SDS011;58428;49.478;10.986;2024-02-23T18:29:10;9.48;;;3.10;;